sensor_id;sensor_type;location;lat;lon;timestamp;temperature;humidity
10089;DHT22;51898;49.864;8.550;2023-05-28T00:01:36;14.10;65.70
10089;DHT22;51898;49.864;8.550;2023-05-28T00:04:38;14.00;65.60
10089;DHT22;51898;49.864;8.550;2023-05-28T00:07:40;14.00;65.30
10089;DHT22;51898;49.864;8.550;2023-05-28T00:10:43;14.00;65.20
10089;DHT22;51898;49.864;8.550;2023-05-28T00:13:45;14.00;65.20
10089;DHT22;51898;49.864;8.550;2023-05-28T00:16:46;13.90;65.30
10089;DHT22;51898;49.864;8.550;2023-05-28T00:19:48;13.90;65.40
10089;DHT22;51898;49.864;8.550;2023-05-28T00:22:50;13.90;65.50
10089;DHT22;51898;49.864;8.550;2023-05-28T00:25:52;13.80;65.80
10089;DHT22;51898;49.864;8.550;2023-05-28T00:28:54;13.70;66.10
10089;DHT22;51898;49.864;8.550;2023-05-28T00:31:56;13.60;66.30
10089;DHT22;51898;49.864;8.550;2023-05-28T00:34:58;13.60;66.50
10089;DHT22;51898;49.864;8.550;2023-05-28T00:38:00;13.50;66.60
10089;DHT22;51898;49.864;8.550;2023-05-28T00:41:02;13.50;66.60
10089;DHT22;51898;49.864;8.550;2023-05-28T00:44:03;13.40;66.60
10089;DHT22;51898;49.864;8.550;2023-05-28T00:47:05;13.40;66.70
10089;DHT22;51898;49.864;8.550;2023-05-28T00:50:08;13.40;67.10
10089;DHT22;51898;49.864;8.550;2023-05-28T00:53:11;13.30;67.70
10089;DHT22;51898;49.864;8.550;2023-05-28T00:56:14;13.20;68.10
10089;DHT22;51898;49.864;8.550;2023-05-28T00:59:17;13.10;68.50
10089;DHT22;51898;49.864;8.550;2023-05-28T01:02:18;13.00;68.80
10089;DHT22;51898;49.864;8.550;2023-05-28T01:05:20;13.00;69.00
10089;DHT22;51898;49.864;8.550;2023-05-28T01:08:22;12.90;69.10
10089;DHT22;51898;49.864;8.550;2023-05-28T01:11:24;12.90;69.30
10089;DHT22;51898;49.864;8.550;2023-05-28T01:14:28;12.80;69.60
10089;DHT22;51898;49.864;8.550;2023-05-28T01:17:31;12.70;69.90
10089;DHT22;51898;49.864;8.550;2023-05-28T01:20:33;12.70;70.20
10089;DHT22;51898;49.864;8.550;2023-05-28T01:23:46;12.70;70.20
10089;DHT22;51898;49.864;8.550;2023-05-28T01:26:49;12.60;70.10
10089;DHT22;51898;49.864;8.550;2023-05-28T01:29:51;12.60;70.10
10089;DHT22;51898;49.864;8.550;2023-05-28T01:32:53;12.60;70.30
10089;DHT22;51898;49.864;8.550;2023-05-28T01:35:56;12.50;70.60
10089;DHT22;51898;49.864;8.550;2023-05-28T01:39:00;12.50;70.70
10089;DHT22;51898;49.864;8.550;2023-05-28T01:42:04;12.40;71.10
10089;DHT22;51898;49.864;8.550;2023-05-28T01:45:09;12.40;71.10
10089;DHT22;51898;49.864;8.550;2023-05-28T01:48:12;12.40;71.20
10089;DHT22;51898;49.864;8.550;2023-05-28T01:51:20;12.30;71.50
10089;DHT22;51898;49.864;8.550;2023-05-28T01:54:22;12.30;72.00
10089;DHT22;51898;49.864;8.550;2023-05-28T01:57:24;12.30;72.20
10089;DHT22;51898;49.864;8.550;2023-05-28T02:00:26;12.30;72.90
10089;DHT22;51898;49.864;8.550;2023-05-28T02:03:27;12.20;73.10
10089;DHT22;51898;49.864;8.550;2023-05-28T02:06:31;12.10;73.40
10089;DHT22;51898;49.864;8.550;2023-05-28T02:09:33;12.10;73.20
10089;DHT22;51898;49.864;8.550;2023-05-28T02:12:34;12.10;73.10
10089;DHT22;51898;49.864;8.550;2023-05-28T02:15:36;12.10;73.10
10089;DHT22;51898;49.864;8.550;2023-05-28T02:18:38;12.10;73.00
10089;DHT22;51898;49.864;8.550;2023-05-28T02:21:41;12.10;72.90
10089;DHT22;51898;49.864;8.550;2023-05-28T02:24:42;12.00;72.80
10089;DHT22;51898;49.864;8.550;2023-05-28T02:27:44;12.10;72.70
10089;DHT22;51898;49.864;8.550;2023-05-28T02:30:46;12.10;72.60
10089;DHT22;51898;49.864;8.550;2023-05-28T02:33:48;12.10;72.70
10089;DHT22;51898;49.864;8.550;2023-05-28T02:36:49;12.10;72.60
10089;DHT22;51898;49.864;8.550;2023-05-28T02:39:54;12.10;72.50
10089;DHT22;51898;49.864;8.550;2023-05-28T02:42:56;12.00;72.60
10089;DHT22;51898;49.864;8.550;2023-05-28T02:45:57;12.00;72.70
10089;DHT22;51898;49.864;8.550;2023-05-28T02:48:59;12.00;72.90
10089;DHT22;51898;49.864;8.550;2023-05-28T02:52:01;12.00;72.80
10089;DHT22;51898;49.864;8.550;2023-05-28T02:55:02;11.90;72.90
10089;DHT22;51898;49.864;8.550;2023-05-28T02:58:04;11.80;72.80
10089;DHT22;51898;49.864;8.550;2023-05-28T03:01:07;11.90;72.80
10089;DHT22;51898;49.864;8.550;2023-05-28T03:04:08;11.80;72.80
10089;DHT22;51898;49.864;8.550;2023-05-28T03:07:10;11.80;72.90
10089;DHT22;51898;49.864;8.550;2023-05-28T03:10:12;11.80;72.90
10089;DHT22;51898;49.864;8.550;2023-05-28T03:13:13;11.80;72.70
10089;DHT22;51898;49.864;8.550;2023-05-28T03:16:15;11.70;72.80
10089;DHT22;51898;49.864;8.550;2023-05-28T03:19:17;11.70;73.00
10089;DHT22;51898;49.864;8.550;2023-05-28T03:22:20;11.70;73.10
10089;DHT22;51898;49.864;8.550;2023-05-28T03:25:22;11.60;73.20
10089;DHT22;51898;49.864;8.550;2023-05-28T03:28:23;11.60;73.10
10089;DHT22;51898;49.864;8.550;2023-05-28T03:31:28;11.60;73.30
10089;DHT22;51898;49.864;8.550;2023-05-28T03:34:31;11.60;73.30
10089;DHT22;51898;49.864;8.550;2023-05-28T03:37:33;11.50;73.60
10089;DHT22;51898;49.864;8.550;2023-05-28T03:40:34;11.50;73.50
10089;DHT22;51898;49.864;8.550;2023-05-28T03:43:36;11.50;73.70
10089;DHT22;51898;49.864;8.550;2023-05-28T03:46:39;11.50;73.90
10089;DHT22;51898;49.864;8.550;2023-05-28T03:49:41;11.50;73.70
10089;DHT22;51898;49.864;8.550;2023-05-28T03:52:43;11.40;74.00
10089;DHT22;51898;49.864;8.550;2023-05-28T03:55:44;11.40;74.30
10089;DHT22;51898;49.864;8.550;2023-05-28T03:58:46;11.40;74.30
10089;DHT22;51898;49.864;8.550;2023-05-28T04:01:48;11.50;74.10
10089;DHT22;51898;49.864;8.550;2023-05-28T04:04:50;11.60;73.80
10089;DHT22;51898;49.864;8.550;2023-05-28T04:07:51;11.60;73.60
10089;DHT22;51898;49.864;8.550;2023-05-28T04:10:53;11.80;73.10
10089;DHT22;51898;49.864;8.550;2023-05-28T04:13:55;11.90;72.70
10089;DHT22;51898;49.864;8.550;2023-05-28T04:16:57;12.10;72.30
10089;DHT22;51898;49.864;8.550;2023-05-28T04:19:59;12.20;71.40
10089;DHT22;51898;49.864;8.550;2023-05-28T04:23:01;12.40;70.90
10089;DHT22;51898;49.864;8.550;2023-05-28T04:26:03;12.50;70.30
10089;DHT22;51898;49.864;8.550;2023-05-28T04:29:07;12.60;69.80
10089;DHT22;51898;49.864;8.550;2023-05-28T04:32:09;12.80;69.50
10089;DHT22;51898;49.864;8.550;2023-05-28T04:35:11;13.00;68.40
10089;DHT22;51898;49.864;8.550;2023-05-28T04:38:14;13.00;68.40
10089;DHT22;51898;49.864;8.550;2023-05-28T04:41:15;13.10;67.90
10089;DHT22;51898;49.864;8.550;2023-05-28T04:44:17;13.20;67.70
10089;DHT22;51898;49.864;8.550;2023-05-28T04:47:19;13.30;67.60
10089;DHT22;51898;49.864;8.550;2023-05-28T04:50:21;13.50;67.20
10089;DHT22;51898;49.864;8.550;2023-05-28T04:53:23;13.50;66.90
10089;DHT22;51898;49.864;8.550;2023-05-28T04:56:25;13.70;66.30
10089;DHT22;51898;49.864;8.550;2023-05-28T04:59:27;13.60;66.30
10089;DHT22;51898;49.864;8.550;2023-05-28T05:02:29;13.70;66.10
10089;DHT22;51898;49.864;8.550;2023-05-28T05:05:30;13.80;66.20
10089;DHT22;51898;49.864;8.550;2023-05-28T05:08:32;13.80;66.00
10089;DHT22;51898;49.864;8.550;2023-05-28T05:11:34;13.80;66.00
10089;DHT22;51898;49.864;8.550;2023-05-28T05:14:36;14.00;65.70
10089;DHT22;51898;49.864;8.550;2023-05-28T05:17:37;14.10;65.60
10089;DHT22;51898;49.864;8.550;2023-05-28T05:20:39;14.10;65.00
10089;DHT22;51898;49.864;8.550;2023-05-28T05:23:41;14.00;65.50
10089;DHT22;51898;49.864;8.550;2023-05-28T05:26:43;14.00;65.30
10089;DHT22;51898;49.864;8.550;2023-05-28T05:29:44;14.00;65.20
10089;DHT22;51898;49.864;8.550;2023-05-28T05:32:46;14.20;65.30
10089;DHT22;51898;49.864;8.550;2023-05-28T05:35:48;14.20;65.10
10089;DHT22;51898;49.864;8.550;2023-05-28T05:38:50;14.40;64.40
10089;DHT22;51898;49.864;8.550;2023-05-28T05:41:51;14.50;64.20
10089;DHT22;51898;49.864;8.550;2023-05-28T05:44:53;14.70;63.70
10089;DHT22;51898;49.864;8.550;2023-05-28T05:47:55;14.90;63.30
10089;DHT22;51898;49.864;8.550;2023-05-28T05:50:56;15.10;62.60
10089;DHT22;51898;49.864;8.550;2023-05-28T05:53:59;15.10;62.00
10089;DHT22;51898;49.864;8.550;2023-05-28T05:57:01;15.20;61.60
10089;DHT22;51898;49.864;8.550;2023-05-28T06:00:05;15.50;60.40
10089;DHT22;51898;49.864;8.550;2023-05-28T06:03:09;15.60;59.60
10089;DHT22;51898;49.864;8.550;2023-05-28T06:06:11;15.70;59.60
10089;DHT22;51898;49.864;8.550;2023-05-28T06:09:14;15.90;58.80
10089;DHT22;51898;49.864;8.550;2023-05-28T06:12:16;16.00;58.30
10089;DHT22;51898;49.864;8.550;2023-05-28T06:15:18;16.10;58.20
10089;DHT22;51898;49.864;8.550;2023-05-28T06:18:20;16.30;57.90
10089;DHT22;51898;49.864;8.550;2023-05-28T06:21:23;16.40;56.90
10089;DHT22;51898;49.864;8.550;2023-05-28T06:24:25;16.60;57.00
10089;DHT22;51898;49.864;8.550;2023-05-28T06:27:27;16.70;56.60
10089;DHT22;51898;49.864;8.550;2023-05-28T06:30:29;16.70;56.60
10089;DHT22;51898;49.864;8.550;2023-05-28T06:33:31;16.90;56.30
10089;DHT22;51898;49.864;8.550;2023-05-28T06:36:32;17.00;56.70
10089;DHT22;51898;49.864;8.550;2023-05-28T06:39:34;17.20;55.80
10089;DHT22;51898;49.864;8.550;2023-05-28T06:42:36;17.40;55.20
10089;DHT22;51898;49.864;8.550;2023-05-28T06:45:41;17.40;54.60
10089;DHT22;51898;49.864;8.550;2023-05-28T06:48:43;17.30;54.40
10089;DHT22;51898;49.864;8.550;2023-05-28T06:51:44;17.20;54.80
10089;DHT22;51898;49.864;8.550;2023-05-28T06:54:46;17.30;55.00
10089;DHT22;51898;49.864;8.550;2023-05-28T06:57:48;17.50;54.10
10089;DHT22;51898;49.864;8.550;2023-05-28T07:00:49;17.70;54.10
10089;DHT22;51898;49.864;8.550;2023-05-28T07:03:51;18.00;53.10
10089;DHT22;51898;49.864;8.550;2023-05-28T07:06:53;18.10;52.40
10089;DHT22;51898;49.864;8.550;2023-05-28T07:09:55;18.00;52.60
10089;DHT22;51898;49.864;8.550;2023-05-28T07:12:56;18.20;52.10
10089;DHT22;51898;49.864;8.550;2023-05-28T07:15:58;18.30;52.20
10089;DHT22;51898;49.864;8.550;2023-05-28T07:19:00;18.40;51.90
10089;DHT22;51898;49.864;8.550;2023-05-28T07:22:02;18.40;52.10
10089;DHT22;51898;49.864;8.550;2023-05-28T07:25:04;18.60;51.90
10089;DHT22;51898;49.864;8.550;2023-05-28T07:28:06;18.80;51.50
10089;DHT22;51898;49.864;8.550;2023-05-28T07:31:08;19.00;51.10
10089;DHT22;51898;49.864;8.550;2023-05-28T07:34:09;19.00;49.70
10089;DHT22;51898;49.864;8.550;2023-05-28T07:37:11;19.00;50.30
10089;DHT22;51898;49.864;8.550;2023-05-28T07:40:13;19.20;49.60
10089;DHT22;51898;49.864;8.550;2023-05-28T07:43:15;19.40;49.70
10089;DHT22;51898;49.864;8.550;2023-05-28T07:46:17;19.50;48.80
10089;DHT22;51898;49.864;8.550;2023-05-28T07:49:19;19.50;48.90
10089;DHT22;51898;49.864;8.550;2023-05-28T07:52:22;19.60;48.10
10089;DHT22;51898;49.864;8.550;2023-05-28T07:55:24;19.70;48.10
10089;DHT22;51898;49.864;8.550;2023-05-28T07:58:26;19.70;48.30
10089;DHT22;51898;49.864;8.550;2023-05-28T08:01:27;19.80;48.20
10089;DHT22;51898;49.864;8.550;2023-05-28T08:04:29;20.00;47.40
10089;DHT22;51898;49.864;8.550;2023-05-28T08:07:31;20.10;47.70
10089;DHT22;51898;49.864;8.550;2023-05-28T08:10:33;20.30;47.80
10089;DHT22;51898;49.864;8.550;2023-05-28T08:13:35;20.50;47.00
10089;DHT22;51898;49.864;8.550;2023-05-28T08:16:36;20.60;46.00
10089;DHT22;51898;49.864;8.550;2023-05-28T08:19:38;20.70;46.40
10089;DHT22;51898;49.864;8.550;2023-05-28T08:22:40;20.90;46.10
10089;DHT22;51898;49.864;8.550;2023-05-28T08:25:44;20.80;46.20
10089;DHT22;51898;49.864;8.550;2023-05-28T08:28:45;20.90;45.90
10089;DHT22;51898;49.864;8.550;2023-05-28T08:31:47;20.90;45.60
10089;DHT22;51898;49.864;8.550;2023-05-28T08:34:49;21.00;45.80
10089;DHT22;51898;49.864;8.550;2023-05-28T08:37:51;21.00;46.10
10089;DHT22;51898;49.864;8.550;2023-05-28T08:40:56;21.30;45.40
10089;DHT22;51898;49.864;8.550;2023-05-28T08:43:57;21.50;45.10
10089;DHT22;51898;49.864;8.550;2023-05-28T08:46:59;21.60;44.40
10089;DHT22;51898;49.864;8.550;2023-05-28T08:50:06;21.70;44.00
10089;DHT22;51898;49.864;8.550;2023-05-28T08:53:10;21.60;44.40
10089;DHT22;51898;49.864;8.550;2023-05-28T08:56:13;21.70;44.10
10089;DHT22;51898;49.864;8.550;2023-05-28T08:59:16;21.70;43.70
10089;DHT22;51898;49.864;8.550;2023-05-28T09:02:23;21.80;43.10
10089;DHT22;51898;49.864;8.550;2023-05-28T09:05:24;21.90;43.10
10089;DHT22;51898;49.864;8.550;2023-05-28T09:08:26;22.10;43.50
10089;DHT22;51898;49.864;8.550;2023-05-28T09:11:28;22.20;42.40
10089;DHT22;51898;49.864;8.550;2023-05-28T09:14:30;22.20;42.80
10089;DHT22;51898;49.864;8.550;2023-05-28T09:17:36;22.40;41.60
10089;DHT22;51898;49.864;8.550;2023-05-28T09:20:38;22.40;41.10
10089;DHT22;51898;49.864;8.550;2023-05-28T09:23:40;22.50;41.60
10089;DHT22;51898;49.864;8.550;2023-05-28T09:26:42;22.80;42.00
10089;DHT22;51898;49.864;8.550;2023-05-28T09:29:44;22.70;42.00
10089;DHT22;51898;49.864;8.550;2023-05-28T09:32:46;22.80;41.30
10089;DHT22;51898;49.864;8.550;2023-05-28T09:36:02;22.90;40.30
10089;DHT22;51898;49.864;8.550;2023-05-28T09:39:08;23.00;39.90
10089;DHT22;51898;49.864;8.550;2023-05-28T09:42:10;23.20;39.80
10089;DHT22;51898;49.864;8.550;2023-05-28T09:45:22;23.30;40.20
10089;DHT22;51898;49.864;8.550;2023-05-28T09:48:24;23.40;38.50
10089;DHT22;51898;49.864;8.550;2023-05-28T09:51:30;23.40;39.40
10089;DHT22;51898;49.864;8.550;2023-05-28T09:54:35;23.50;40.10
10089;DHT22;51898;49.864;8.550;2023-05-28T09:57:42;23.50;40.60
10089;DHT22;51898;49.864;8.550;2023-05-28T10:00:51;23.60;38.70
10089;DHT22;51898;49.864;8.550;2023-05-28T10:04:09;23.60;38.40
10089;DHT22;51898;49.864;8.550;2023-05-28T10:07:12;23.80;39.10
10089;DHT22;51898;49.864;8.550;2023-05-28T10:10:15;23.80;39.00
10089;DHT22;51898;49.864;8.550;2023-05-28T10:13:17;23.70;39.00
10089;DHT22;51898;49.864;8.550;2023-05-28T10:16:20;23.90;38.30
10089;DHT22;51898;49.864;8.550;2023-05-28T10:19:22;24.00;38.00
10089;DHT22;51898;49.864;8.550;2023-05-28T10:22:24;23.90;38.00
10089;DHT22;51898;49.864;8.550;2023-05-28T10:25:26;23.90;37.90
10089;DHT22;51898;49.864;8.550;2023-05-28T10:28:29;24.00;38.20
10089;DHT22;51898;49.864;8.550;2023-05-28T10:31:31;24.00;37.10
10089;DHT22;51898;49.864;8.550;2023-05-28T10:34:35;24.10;37.20
10089;DHT22;51898;49.864;8.550;2023-05-28T10:37:37;24.20;37.20
10089;DHT22;51898;49.864;8.550;2023-05-28T10:40:39;24.20;37.40
10089;DHT22;51898;49.864;8.550;2023-05-28T10:43:42;24.20;36.30
10089;DHT22;51898;49.864;8.550;2023-05-28T10:46:44;24.40;35.70
10089;DHT22;51898;49.864;8.550;2023-05-28T10:50:12;24.40;36.20
10089;DHT22;51898;49.864;8.550;2023-05-28T10:53:19;24.40;35.50
10089;DHT22;51898;49.864;8.550;2023-05-28T10:56:21;24.50;35.60
10089;DHT22;51898;49.864;8.550;2023-05-28T10:59:46;24.60;34.90
10089;DHT22;51898;49.864;8.550;2023-05-28T11:02:51;24.70;35.10
10089;DHT22;51898;49.864;8.550;2023-05-28T11:05:53;24.80;34.80
10089;DHT22;51898;49.864;8.550;2023-05-28T11:08:56;24.90;34.50
10089;DHT22;51898;49.864;8.550;2023-05-28T11:11:59;24.80;34.80
10089;DHT22;51898;49.864;8.550;2023-05-28T11:15:04;25.00;35.00
10089;DHT22;51898;49.864;8.550;2023-05-28T11:18:07;25.10;34.30
10089;DHT22;51898;49.864;8.550;2023-05-28T11:21:09;25.30;34.40
10089;DHT22;51898;49.864;8.550;2023-05-28T11:24:11;25.40;33.30
10089;DHT22;51898;49.864;8.550;2023-05-28T11:27:13;25.20;32.80
10089;DHT22;51898;49.864;8.550;2023-05-28T11:30:18;25.10;32.70
10089;DHT22;51898;49.864;8.550;2023-05-28T11:33:20;25.30;33.30
10089;DHT22;51898;49.864;8.550;2023-05-28T11:36:22;25.40;33.70
10089;DHT22;51898;49.864;8.550;2023-05-28T11:39:24;25.60;33.40
10089;DHT22;51898;49.864;8.550;2023-05-28T11:42:28;25.50;33.30
10089;DHT22;51898;49.864;8.550;2023-05-28T11:45:36;25.60;33.00
10089;DHT22;51898;49.864;8.550;2023-05-28T11:48:38;25.70;33.30
10089;DHT22;51898;49.864;8.550;2023-05-28T11:51:40;25.80;32.60
10089;DHT22;51898;49.864;8.550;2023-05-28T11:54:44;25.80;33.10
10089;DHT22;51898;49.864;8.550;2023-05-28T11:57:52;25.90;32.60
10089;DHT22;51898;49.864;8.550;2023-05-28T12:00:57;26.10;32.60
10089;DHT22;51898;49.864;8.550;2023-05-28T12:04:04;26.10;32.20
10089;DHT22;51898;49.864;8.550;2023-05-28T12:07:06;26.20;32.90
10089;DHT22;51898;49.864;8.550;2023-05-28T12:10:10;26.10;32.50
10089;DHT22;51898;49.864;8.550;2023-05-28T12:13:13;26.00;32.50
10089;DHT22;51898;49.864;8.550;2023-05-28T12:16:14;26.00;32.60
10089;DHT22;51898;49.864;8.550;2023-05-28T12:19:17;26.20;32.40
10089;DHT22;51898;49.864;8.550;2023-05-28T12:22:18;26.30;32.30
10089;DHT22;51898;49.864;8.550;2023-05-28T12:25:21;26.20;32.00
10089;DHT22;51898;49.864;8.550;2023-05-28T12:28:22;26.20;32.10
10089;DHT22;51898;49.864;8.550;2023-05-28T12:31:28;26.30;31.60
10089;DHT22;51898;49.864;8.550;2023-05-28T12:34:30;26.40;31.60
10089;DHT22;51898;49.864;8.550;2023-05-28T12:37:32;26.50;31.70
10089;DHT22;51898;49.864;8.550;2023-05-28T12:40:34;26.50;30.90
10089;DHT22;51898;49.864;8.550;2023-05-28T12:43:35;26.40;31.50
10089;DHT22;51898;49.864;8.550;2023-05-28T12:46:37;26.60;31.10
10089;DHT22;51898;49.864;8.550;2023-05-28T12:49:39;26.50;31.10
10089;DHT22;51898;49.864;8.550;2023-05-28T12:52:41;26.70;30.60
10089;DHT22;51898;49.864;8.550;2023-05-28T12:55:43;26.80;31.00
10089;DHT22;51898;49.864;8.550;2023-05-28T12:58:45;27.00;30.60
10089;DHT22;51898;49.864;8.550;2023-05-28T13:01:47;26.80;30.30
10089;DHT22;51898;49.864;8.550;2023-05-28T13:04:49;26.60;30.30
10089;DHT22;51898;49.864;8.550;2023-05-28T13:07:51;26.60;30.20
10089;DHT22;51898;49.864;8.550;2023-05-28T13:10:53;26.60;29.40
10089;DHT22;51898;49.864;8.550;2023-05-28T13:13:54;26.80;29.20
10089;DHT22;51898;49.864;8.550;2023-05-28T13:16:56;26.90;29.80
10089;DHT22;51898;49.864;8.550;2023-05-28T13:19:59;27.10;29.50
10089;DHT22;51898;49.864;8.550;2023-05-28T13:23:01;27.20;29.90
10089;DHT22;51898;49.864;8.550;2023-05-28T13:26:04;27.30;29.40
10089;DHT22;51898;49.864;8.550;2023-05-28T13:29:05;27.40;30.20
10089;DHT22;51898;49.864;8.550;2023-05-28T13:32:08;27.30;29.90
10089;DHT22;51898;49.864;8.550;2023-05-28T13:35:10;27.20;30.20
10089;DHT22;51898;49.864;8.550;2023-05-28T13:38:13;27.20;30.50
10089;DHT22;51898;49.864;8.550;2023-05-28T13:41:15;27.30;30.50
10089;DHT22;51898;49.864;8.550;2023-05-28T13:44:16;27.40;30.10
10089;DHT22;51898;49.864;8.550;2023-05-28T13:47:18;27.30;30.20
10089;DHT22;51898;49.864;8.550;2023-05-28T13:50:20;27.40;30.80
10089;DHT22;51898;49.864;8.550;2023-05-28T13:53:22;27.50;31.20
10089;DHT22;51898;49.864;8.550;2023-05-28T13:56:24;27.50;31.20
10089;DHT22;51898;49.864;8.550;2023-05-28T13:59:26;27.60;31.40
10089;DHT22;51898;49.864;8.550;2023-05-28T14:02:27;27.30;30.90
10089;DHT22;51898;49.864;8.550;2023-05-28T14:05:29;27.20;31.90
10089;DHT22;51898;49.864;8.550;2023-05-28T14:08:31;27.40;31.60
10089;DHT22;51898;49.864;8.550;2023-05-28T14:11:32;27.60;30.30
10089;DHT22;51898;49.864;8.550;2023-05-28T14:14:54;27.60;30.70
10089;DHT22;51898;49.864;8.550;2023-05-28T14:17:56;27.50;31.00
10089;DHT22;51898;49.864;8.550;2023-05-28T14:20:57;27.50;31.50
10089;DHT22;51898;49.864;8.550;2023-05-28T14:23:59;27.70;31.40
10089;DHT22;51898;49.864;8.550;2023-05-28T14:27:01;27.40;31.60
10089;DHT22;51898;49.864;8.550;2023-05-28T14:30:04;27.30;31.70
10089;DHT22;51898;49.864;8.550;2023-05-28T14:33:06;27.20;31.50
10089;DHT22;51898;49.864;8.550;2023-05-28T14:36:08;27.40;31.60
10089;DHT22;51898;49.864;8.550;2023-05-28T14:39:14;27.40;31.90
10089;DHT22;51898;49.864;8.550;2023-05-28T14:42:16;27.40;32.20
10089;DHT22;51898;49.864;8.550;2023-05-28T14:45:18;27.70;32.30
10089;DHT22;51898;49.864;8.550;2023-05-28T14:48:20;28.00;31.70
10089;DHT22;51898;49.864;8.550;2023-05-28T14:51:22;27.90;31.70
10089;DHT22;51898;49.864;8.550;2023-05-28T14:54:24;28.00;31.60
10089;DHT22;51898;49.864;8.550;2023-05-28T14:57:27;27.90;31.30
10089;DHT22;51898;49.864;8.550;2023-05-28T15:00:29;27.70;31.50
10089;DHT22;51898;49.864;8.550;2023-05-28T15:03:31;27.80;31.20
10089;DHT22;51898;49.864;8.550;2023-05-28T15:06:33;27.80;31.10
10089;DHT22;51898;49.864;8.550;2023-05-28T15:09:34;28.10;30.70
10089;DHT22;51898;49.864;8.550;2023-05-28T15:12:36;27.90;30.90
10089;DHT22;51898;49.864;8.550;2023-05-28T15:15:38;27.80;31.10
10089;DHT22;51898;49.864;8.550;2023-05-28T15:18:40;27.90;31.10
10089;DHT22;51898;49.864;8.550;2023-05-28T15:21:42;28.10;31.00
10089;DHT22;51898;49.864;8.550;2023-05-28T15:24:45;28.20;30.60
10089;DHT22;51898;49.864;8.550;2023-05-28T15:27:48;27.90;30.80
10089;DHT22;51898;49.864;8.550;2023-05-28T15:30:49;28.10;30.40
10089;DHT22;51898;49.864;8.550;2023-05-28T15:33:51;28.30;30.30
10089;DHT22;51898;49.864;8.550;2023-05-28T15:36:53;28.70;30.10
10089;DHT22;51898;49.864;8.550;2023-05-28T15:39:55;28.70;29.70
10089;DHT22;51898;49.864;8.550;2023-05-28T15:43:03;28.80;30.40
10089;DHT22;51898;49.864;8.550;2023-05-28T15:46:08;28.80;29.90
10089;DHT22;51898;49.864;8.550;2023-05-28T15:49:09;28.70;30.80
10089;DHT22;51898;49.864;8.550;2023-05-28T15:52:11;28.60;31.20
10089;DHT22;51898;49.864;8.550;2023-05-28T15:55:13;28.90;30.70
10089;DHT22;51898;49.864;8.550;2023-05-28T15:58:15;28.90;30.70
10089;DHT22;51898;49.864;8.550;2023-05-28T16:01:18;29.10;30.50
10089;DHT22;51898;49.864;8.550;2023-05-28T16:04:22;29.20;30.60
10089;DHT22;51898;49.864;8.550;2023-05-28T16:07:24;29.20;30.20
10089;DHT22;51898;49.864;8.550;2023-05-28T16:10:27;29.10;30.50
10089;DHT22;51898;49.864;8.550;2023-05-28T16:13:29;29.10;30.10
10089;DHT22;51898;49.864;8.550;2023-05-28T16:16:33;29.20;30.00
10089;DHT22;51898;49.864;8.550;2023-05-28T16:19:36;29.40;29.60
10089;DHT22;51898;49.864;8.550;2023-05-28T16:22:38;29.40;29.80
10089;DHT22;51898;49.864;8.550;2023-05-28T16:25:40;29.50;29.60
10089;DHT22;51898;49.864;8.550;2023-05-28T16:28:42;29.70;29.70
10089;DHT22;51898;49.864;8.550;2023-05-28T16:31:45;29.30;30.00
10089;DHT22;51898;49.864;8.550;2023-05-28T16:34:48;29.80;30.10
10089;DHT22;51898;49.864;8.550;2023-05-28T16:37:51;29.90;30.10
10089;DHT22;51898;49.864;8.550;2023-05-28T16:40:52;29.80;30.10
10089;DHT22;51898;49.864;8.550;2023-05-28T16:43:54;29.50;30.60
10089;DHT22;51898;49.864;8.550;2023-05-28T16:46:57;29.70;30.40
10089;DHT22;51898;49.864;8.550;2023-05-28T16:49:59;29.40;31.00
10089;DHT22;51898;49.864;8.550;2023-05-28T16:53:01;29.50;30.50
10089;DHT22;51898;49.864;8.550;2023-05-28T16:56:03;29.40;30.70
10089;DHT22;51898;49.864;8.550;2023-05-28T16:59:05;29.60;30.70
10089;DHT22;51898;49.864;8.550;2023-05-28T17:02:06;29.70;30.40
10089;DHT22;51898;49.864;8.550;2023-05-28T17:05:11;29.60;30.50
10089;DHT22;51898;49.864;8.550;2023-05-28T17:08:13;29.30;30.80
10089;DHT22;51898;49.864;8.550;2023-05-28T17:11:15;29.30;30.90
10089;DHT22;51898;49.864;8.550;2023-05-28T17:14:17;29.40;30.90
10089;DHT22;51898;49.864;8.550;2023-05-28T17:17:18;29.30;30.50
10089;DHT22;51898;49.864;8.550;2023-05-28T17:20:20;29.30;30.20
10089;DHT22;51898;49.864;8.550;2023-05-28T17:23:22;28.70;30.70
10089;DHT22;51898;49.864;8.550;2023-05-28T17:26:24;28.70;30.80
10089;DHT22;51898;49.864;8.550;2023-05-28T17:29:26;28.60;30.90
10089;DHT22;51898;49.864;8.550;2023-05-28T17:32:28;28.80;31.20
10089;DHT22;51898;49.864;8.550;2023-05-28T17:35:30;29.10;30.80
10089;DHT22;51898;49.864;8.550;2023-05-28T17:38:31;29.10;30.90
10089;DHT22;51898;49.864;8.550;2023-05-28T17:41:34;29.10;31.10
10089;DHT22;51898;49.864;8.550;2023-05-28T17:44:36;29.20;31.20
10089;DHT22;51898;49.864;8.550;2023-05-28T17:47:37;29.40;30.70
10089;DHT22;51898;49.864;8.550;2023-05-28T17:50:39;29.20;30.80
10089;DHT22;51898;49.864;8.550;2023-05-28T17:53:41;29.00;31.30
10089;DHT22;51898;49.864;8.550;2023-05-28T17:56:49;28.90;31.40
10089;DHT22;51898;49.864;8.550;2023-05-28T17:59:51;28.70;31.70
10089;DHT22;51898;49.864;8.550;2023-05-28T18:02:53;28.50;32.20
10089;DHT22;51898;49.864;8.550;2023-05-28T18:05:56;28.20;32.60
10089;DHT22;51898;49.864;8.550;2023-05-28T18:08:58;27.90;33.10
10089;DHT22;51898;49.864;8.550;2023-05-28T18:12:00;27.60;33.20
10089;DHT22;51898;49.864;8.550;2023-05-28T18:15:01;27.60;33.50
10089;DHT22;51898;49.864;8.550;2023-05-28T18:18:03;27.80;33.30
10089;DHT22;51898;49.864;8.550;2023-05-28T18:21:05;27.90;33.00
10089;DHT22;51898;49.864;8.550;2023-05-28T18:24:09;28.00;33.20
10089;DHT22;51898;49.864;8.550;2023-05-28T18:27:11;28.00;33.10
10089;DHT22;51898;49.864;8.550;2023-05-28T18:30:13;27.60;33.60
10089;DHT22;51898;49.864;8.550;2023-05-28T18:33:15;27.40;33.80
10089;DHT22;51898;49.864;8.550;2023-05-28T18:36:16;26.90;34.50
10089;DHT22;51898;49.864;8.550;2023-05-28T18:39:18;26.50;35.30
10089;DHT22;51898;49.864;8.550;2023-05-28T18:42:20;26.10;35.90
10089;DHT22;51898;49.864;8.550;2023-05-28T18:45:21;25.50;36.50
10089;DHT22;51898;49.864;8.550;2023-05-28T18:48:23;25.10;37.10
10089;DHT22;51898;49.864;8.550;2023-05-28T18:51:25;24.70;37.70
10089;DHT22;51898;49.864;8.550;2023-05-28T18:54:27;24.40;38.30
10089;DHT22;51898;49.864;8.550;2023-05-28T18:57:28;24.00;38.90
10089;DHT22;51898;49.864;8.550;2023-05-28T19:00:30;23.80;39.30
10089;DHT22;51898;49.864;8.550;2023-05-28T19:03:32;23.50;39.60
10089;DHT22;51898;49.864;8.550;2023-05-28T19:06:35;23.40;39.50
10089;DHT22;51898;49.864;8.550;2023-05-28T19:09:38;23.20;39.10
10089;DHT22;51898;49.864;8.550;2023-05-28T19:12:39;23.10;39.10